createdAt,value
2022-11-19T00:01:18.815Z,9.27
2022-11-19T00:03:51.174Z,6.65
2022-11-19T00:06:24.365Z,7.45
2022-11-19T00:08:50.765Z,7.70
2022-11-19T00:11:38.364Z,7.60
2022-11-19T00:14:05.281Z,6.53
2022-11-19T00:16:31.826Z,8.35
2022-11-19T00:18:58.295Z,6.80
2022-11-19T00:21:24.683Z,9.07
2022-11-19T00:23:54.508Z,8.40
2022-11-19T00:26:21.560Z,8.32
2022-11-19T00:28:48.061Z,8.18
2022-11-19T00:31:15.782Z,7.85
2022-11-19T00:33:43.290Z,7.90
2022-11-19T00:36:12.217Z,8.18
2022-11-19T00:38:39.144Z,9.23
2022-11-19T00:41:06.297Z,6.78
2022-11-19T00:43:48.083Z,8.77
2022-11-19T00:46:23.236Z,8.87
2022-11-19T00:48:51.681Z,8.30
2022-11-19T00:51:19.424Z,7.68
2022-11-19T00:53:46.307Z,8.82
2022-11-19T00:56:15.218Z,8.70
2022-11-19T00:58:42.473Z,8.50
2022-11-19T01:01:10.717Z,9.38
2022-11-19T01:03:38.613Z,8.68
2022-11-19T01:06:08.017Z,9.88
2022-11-19T01:08:35.354Z,8.60
2022-11-19T01:11:10.618Z,9.33
2022-11-19T01:13:37.291Z,9.10
2022-11-19T01:16:12.264Z,9.32
2022-11-19T01:18:40.331Z,8.35
2022-11-19T01:21:07.817Z,9.32
2022-11-19T01:23:34.245Z,7.77
2022-11-19T01:26:01.524Z,9.77
2022-11-19T01:28:28.394Z,9.32
2022-11-19T01:30:54.834Z,8.70
2022-11-19T01:33:22.443Z,7.78
2022-11-19T01:35:59.929Z,9.73
2022-11-19T01:38:27.532Z,9.32
2022-11-19T01:40:55.521Z,10.23
2022-11-19T01:43:41.164Z,8.00
2022-11-19T01:46:08.650Z,8.68
2022-11-19T01:48:39.223Z,8.97
2022-11-19T01:51:11.589Z,8.30
2022-11-19T01:53:38.243Z,9.13
2022-11-19T01:56:06.825Z,8.95
2022-11-19T01:58:45.894Z,8.70
2022-11-19T02:01:12.360Z,9.80
2022-11-19T02:03:39.826Z,10.18
2022-11-19T02:06:07.548Z,9.02
2022-11-19T02:08:42.925Z,9.50
2022-11-19T02:11:17.099Z,9.32
2022-11-19T02:14:02.439Z,8.77
2022-11-19T02:17:02.224Z,8.68
2022-11-19T02:20:06.400Z,10.18
2022-11-19T02:23:24.078Z,8.40
2022-11-19T02:26:13.209Z,9.35
2022-11-19T02:29:07.483Z,11.90
2022-11-19T02:31:46.729Z,9.55
2022-11-19T02:34:20.782Z,7.88
2022-11-19T02:36:57.860Z,9.60
2022-11-19T02:39:41.655Z,8.75
2022-11-19T02:42:17.816Z,9.13
2022-11-19T02:44:59.008Z,8.05
2022-11-19T02:47:30.571Z,11.05
2022-11-19T02:50:04.181Z,7.97
2022-11-19T02:52:31.729Z,8.80
2022-11-19T02:54:58.081Z,10.10
2022-11-19T02:57:24.468Z,10.40
2022-11-19T03:00:15.347Z,8.70
2022-11-19T03:03:18.555Z,9.38
2022-11-19T03:05:49.799Z,9.07
2022-11-19T03:08:16.737Z,10.33
2022-11-19T03:10:54.743Z,8.23
2022-11-19T03:13:44.798Z,8.13
2022-11-19T03:16:36.843Z,9.25
2022-11-19T03:19:27.225Z,8.57
2022-11-19T03:22:23.221Z,9.20
2022-11-19T03:24:59.246Z,8.18
2022-11-19T03:27:38.440Z,10.82
2022-11-19T03:30:05.873Z,9.35
2022-11-19T03:32:57.605Z,9.65
2022-11-19T03:35:43.129Z,10.00
2022-11-19T03:38:14.842Z,9.35
2022-11-19T03:40:42.666Z,10.93
2022-11-19T03:43:13.154Z,10.13
2022-11-19T03:45:43.057Z,9.73
2022-11-19T03:48:11.680Z,10.17
2022-11-19T03:50:42.781Z,8.55
2022-11-19T03:53:09.429Z,9.80
2022-11-19T03:55:42.926Z,8.30
2022-11-19T03:58:10.952Z,10.63
2022-11-19T04:00:37.677Z,11.10
2022-11-19T04:03:04.572Z,10.48
2022-11-19T04:05:31.105Z,10.82
2022-11-19T04:07:57.459Z,10.20
2022-11-19T04:10:23.833Z,11.52
2022-11-19T04:12:50.231Z,11.03
2022-11-19T04:15:16.681Z,10.20
2022-11-19T04:17:43.074Z,11.52
2022-11-19T04:20:09.891Z,10.43
2022-11-19T04:22:36.321Z,11.65
2022-11-19T04:25:02.699Z,9.73
2022-11-19T04:27:29.190Z,9.65
2022-11-19T04:29:55.542Z,9.95
2022-11-19T04:32:21.930Z,12.05
2022-11-19T04:34:48.349Z,10.32
2022-11-19T04:37:14.692Z,9.90
2022-11-19T04:39:41.049Z,10.23
2022-11-19T04:42:07.409Z,10.43
2022-11-19T04:44:34.137Z,10.57
2022-11-19T04:47:00.545Z,11.63
2022-11-19T04:49:26.918Z,10.30
2022-11-19T04:51:53.367Z,10.45
2022-11-19T04:54:19.748Z,10.82
2022-11-19T04:56:46.104Z,11.65
2022-11-19T04:59:12.501Z,10.65
2022-11-19T05:01:38.911Z,10.87
2022-11-19T05:04:05.312Z,9.63
2022-11-19T05:06:31.673Z,10.93
2022-11-19T05:08:58.017Z,10.52
2022-11-19T05:11:24.386Z,10.50
2022-11-19T05:13:50.757Z,11.03
2022-11-19T05:16:17.148Z,10.45
2022-11-19T05:18:43.598Z,9.73
2022-11-19T05:21:09.976Z,11.43
2022-11-19T05:23:36.328Z,11.07
2022-11-19T05:26:02.766Z,12.03
2022-11-19T05:28:38.510Z,11.02
2022-11-19T05:31:07.187Z,10.88
2022-11-19T05:33:34.579Z,10.65
2022-11-19T05:36:01.473Z,11.55
2022-11-19T05:38:27.851Z,10.57
2022-11-19T05:40:54.316Z,10.25
2022-11-19T05:43:20.697Z,11.15
2022-11-19T05:45:47.096Z,10.88
2022-11-19T05:48:13.448Z,12.18
2022-11-19T05:50:42.222Z,12.60
2022-11-19T05:53:09.091Z,12.93
2022-11-19T05:55:35.457Z,11.70
2022-11-19T05:58:01.825Z,13.32
2022-11-19T06:00:28.186Z,11.85
2022-11-19T06:02:54.641Z,11.70
2022-11-19T06:05:21.108Z,12.18
2022-11-19T06:07:47.465Z,12.27
2022-11-19T06:10:13.825Z,11.43
2022-11-19T06:12:45.545Z,10.80
2022-11-19T06:15:12.526Z,11.57
2022-11-19T06:17:38.870Z,12.02
2022-11-19T06:20:08.684Z,10.85
2022-11-19T06:22:36.295Z,12.43
2022-11-19T06:25:07.717Z,10.25
2022-11-19T06:27:34.824Z,11.57
2022-11-19T06:30:01.482Z,11.52
2022-11-19T06:32:27.898Z,11.93
2022-11-19T06:34:54.233Z,13.32
2022-11-19T06:37:20.953Z,13.40
2022-11-19T06:39:47.329Z,14.00
2022-11-19T06:42:32.278Z,12.38
2022-11-19T06:44:58.697Z,12.25
2022-11-19T06:47:25.078Z,13.38
2022-11-19T06:49:51.493Z,10.82
2022-11-19T06:52:17.849Z,12.23
2022-11-19T06:54:44.191Z,13.18
2022-11-19T06:57:10.616Z,13.90
2022-11-19T06:59:38.842Z,13.80
2022-11-19T07:02:05.927Z,13.07
2022-11-19T07:04:32.433Z,12.23
2022-11-19T07:06:59.201Z,11.77
2022-11-19T07:09:25.636Z,13.15
2022-11-19T07:11:52.072Z,13.07
2022-11-19T07:14:18.427Z,14.57
2022-11-19T07:16:45.079Z,13.93
2022-11-19T07:19:11.492Z,12.75
2022-11-19T07:21:37.866Z,12.13
2022-11-19T07:24:07.393Z,12.38
2022-11-19T07:26:34.873Z,12.75
2022-11-19T07:29:04.976Z,13.37
2022-11-19T07:31:32.277Z,14.63
2022-11-19T07:33:59.024Z,13.82
2022-11-19T07:36:25.758Z,14.68
2022-11-19T07:38:52.323Z,14.02
2022-11-19T07:41:40.672Z,14.00
2022-11-19T07:44:07.288Z,13.98
2022-11-19T07:46:33.673Z,14.98
2022-11-19T07:49:00.279Z,14.70
2022-11-19T07:51:26.940Z,14.55
2022-11-19T07:53:54.788Z,14.67
2022-11-19T07:56:21.315Z,14.43
2022-11-19T07:58:47.870Z,13.18
2022-11-19T08:01:24.183Z,14.48
2022-11-19T08:03:56.004Z,15.45
2022-11-19T08:06:27.473Z,14.70
2022-11-19T08:08:55.170Z,13.32
2022-11-19T08:11:22.014Z,14.05
2022-11-19T08:13:48.428Z,14.80
2022-11-19T08:16:35.037Z,13.40
2022-11-19T08:19:02.732Z,15.50
2022-11-19T08:21:29.082Z,14.65
2022-11-19T08:23:55.667Z,14.43
2022-11-19T08:26:22.782Z,13.63
2022-11-19T08:28:49.181Z,14.30
2022-11-19T08:31:15.583Z,13.67
2022-11-19T08:33:42.094Z,13.73
2022-11-19T08:36:08.474Z,14.73
2022-11-19T08:38:38.621Z,14.30
2022-11-19T08:41:24.287Z,15.07
2022-11-19T08:43:50.619Z,14.30
2022-11-19T08:46:17.026Z,14.32
2022-11-19T08:48:43.404Z,13.73
2022-11-19T08:51:14.719Z,14.65
2022-11-19T08:53:41.070Z,16.45
2022-11-19T08:56:07.592Z,14.53
2022-11-19T08:58:34.847Z,14.27
2022-11-19T09:01:09.089Z,12.18
2022-11-19T09:03:35.558Z,13.07
2022-11-19T09:06:01.913Z,11.95
2022-11-19T09:08:29.898Z,12.73
2022-11-19T09:10:56.546Z,10.63
2022-11-19T09:13:23.081Z,10.63
2022-11-19T09:15:50.486Z,12.25
2022-11-19T09:18:16.866Z,13.02
2022-11-19T09:20:43.613Z,10.97
2022-11-19T09:23:10.285Z,11.00
2022-11-19T09:25:36.732Z,12.90
2022-11-19T09:28:03.255Z,12.48
2022-11-19T09:30:29.618Z,10.50
2022-11-19T09:32:59.396Z,11.10
2022-11-19T09:35:25.761Z,12.85
2022-11-19T09:37:52.122Z,11.98
2022-11-19T09:40:21.667Z,12.70
2022-11-19T09:42:54.409Z,9.82
2022-11-19T09:45:46.360Z,12.77
2022-11-19T09:48:33.175Z,12.38
2022-11-19T09:51:09.141Z,10.10
2022-11-19T09:53:49.793Z,11.25
2022-11-19T09:56:22.444Z,11.43
2022-11-19T09:58:48.850Z,10.07
2022-11-19T10:01:17.946Z,10.55
2022-11-19T10:03:50.761Z,11.18
2022-11-19T10:06:30.622Z,10.32
2022-11-19T10:09:29.297Z,10.00
2022-11-19T10:12:21.069Z,10.93
2022-11-19T10:15:12.241Z,12.35
2022-11-19T10:18:01.497Z,10.07
2022-11-19T10:20:46.522Z,9.85
2022-11-19T10:23:25.662Z,8.88
2022-11-19T10:26:02.718Z,10.53
2022-11-19T10:28:36.320Z,11.95
2022-11-19T10:31:16.657Z,9.73
2022-11-19T10:34:04.502Z,8.88
2022-11-19T10:36:45.322Z,11.48
2022-11-19T10:39:23.092Z,10.73
2022-11-19T10:41:55.019Z,11.48
2022-11-19T10:44:40.806Z,10.70
2022-11-19T10:47:34.531Z,10.20
2022-11-19T10:50:00.945Z,10.65
2022-11-19T10:52:38.626Z,10.13
2022-11-19T10:55:14.899Z,11.20
2022-11-19T10:57:42.073Z,10.07
2022-11-19T11:00:09.062Z,9.77
2022-11-19T11:02:44.692Z,11.25
2022-11-19T11:05:15.493Z,10.47
2022-11-19T11:07:56.473Z,8.68
2022-11-19T11:10:29.629Z,9.13
2022-11-19T11:13:23.250Z,9.13
2022-11-19T11:15:50.924Z,8.25
2022-11-19T11:18:19.064Z,8.97
2022-11-19T11:20:49.019Z,9.15
2022-11-19T11:23:19.031Z,8.15
2022-11-19T11:26:02.759Z,7.75
2022-11-19T11:28:29.684Z,8.48
2022-11-19T11:30:55.982Z,9.47
2022-11-19T11:33:35.906Z,9.30
2022-11-19T11:36:11.281Z,8.13
2022-11-19T11:38:47.244Z,7.57
2022-11-19T11:44:18.629Z,7.80
2022-11-19T11:46:48.313Z,7.35
2022-11-19T11:49:25.885Z,9.10
2022-11-19T11:52:11.391Z,8.52
2022-11-19T11:54:53.515Z,7.45
2022-11-19T11:57:25.956Z,7.60
2022-11-19T11:59:52.648Z,8.10
2022-11-19T12:02:30.603Z,9.52
2022-11-19T12:05:03.646Z,9.40
2022-11-19T12:07:37.518Z,7.53
2022-11-19T12:10:19.136Z,9.67
2022-11-19T12:13:21.162Z,7.68
2022-11-19T12:16:13.387Z,8.40
2022-11-19T12:19:37.179Z,8.82
2022-11-19T12:22:12.029Z,9.70
2022-11-19T12:24:55.789Z,8.37
2022-11-19T12:27:59.583Z,8.32
2022-11-19T12:30:34.447Z,8.95
2022-11-19T12:33:20.172Z,9.13
2022-11-19T12:36:05.271Z,8.82
2022-11-19T12:38:48.128Z,8.30
2022-11-19T12:41:45.336Z,8.10
2022-11-19T12:45:07.428Z,7.93
2022-11-19T12:47:58.160Z,7.43
2022-11-19T12:50:51.035Z,7.72
2022-11-19T12:53:43.608Z,7.37
2022-11-19T12:56:16.080Z,7.93
2022-11-19T12:59:22.072Z,9.10
2022-11-19T13:01:52.409Z,7.60
2022-11-19T13:04:31.901Z,8.23
2022-11-19T13:07:04.063Z,8.73
2022-11-19T13:09:52.121Z,8.80
2022-11-19T13:12:22.907Z,9.75
2022-11-19T13:15:04.402Z,8.90
2022-11-19T13:17:40.290Z,7.63
2022-11-19T13:20:18.162Z,8.40
2022-11-19T13:22:47.608Z,7.75
2022-11-19T13:25:26.995Z,7.40
2022-11-19T13:27:56.426Z,8.30
2022-11-19T13:30:26.836Z,7.60
2022-11-19T13:33:11.440Z,9.37
2022-11-19T13:36:05.085Z,8.40
2022-11-19T13:38:48.355Z,8.13
2022-11-19T13:41:29.124Z,9.32
2022-11-19T13:44:15.115Z,10.32
2022-11-19T13:46:49.944Z,7.80
2022-11-19T13:49:38.823Z,9.90
2022-11-19T13:52:23.481Z,8.52
2022-11-19T13:54:50.426Z,8.35
2022-11-19T13:57:30.874Z,9.13
2022-11-19T14:00:05.686Z,9.97
2022-11-19T14:03:00.121Z,10.52
2022-11-19T14:05:45.411Z,11.85
2022-11-19T14:08:36.012Z,12.23
2022-11-19T14:11:43.982Z,12.68
2022-11-19T14:14:55.610Z,10.20
2022-11-19T14:17:46.624Z,10.55
2022-11-19T14:20:50.578Z,9.70
2022-11-19T14:24:26.853Z,9.35
2022-11-19T14:27:01.489Z,10.60
2022-11-19T14:29:27.866Z,12.63
2022-11-19T14:31:59.970Z,13.23
2022-11-19T14:34:31.921Z,10.77
2022-11-19T14:37:02.909Z,11.60
2022-11-19T14:39:41.431Z,11.60
2022-11-19T14:42:16.660Z,10.87
2022-11-19T14:44:44.687Z,10.80
2022-11-19T14:47:26.177Z,12.05
2022-11-19T14:49:55.680Z,12.07
2022-11-19T14:52:34.202Z,16.33
2022-11-19T14:55:05.344Z,14.70
2022-11-19T14:57:35.971Z,12.77
2022-11-19T15:00:24.574Z,11.00
2022-11-19T15:02:53.847Z,11.90
2022-11-19T15:05:31.868Z,12.93
2022-11-19T15:08:24.665Z,11.87
2022-11-19T15:11:11.756Z,11.40
2022-11-19T15:13:43.194Z,13.32
2022-11-19T15:16:45.579Z,11.43
2022-11-19T15:19:49.307Z,11.60
2022-11-19T15:22:37.495Z,12.57
2022-11-19T15:25:23.487Z,12.10
2022-11-19T15:28:11.527Z,12.27
2022-11-19T15:30:56.020Z,13.45
2022-11-19T15:33:28.338Z,11.50
2022-11-19T15:36:21.441Z,11.83
2022-11-19T15:38:57.444Z,11.85
2022-11-19T15:41:25.889Z,12.27
2022-11-19T15:43:56.164Z,12.40
2022-11-19T15:46:35.365Z,13.48
2022-11-19T15:49:10.700Z,12.53
2022-11-19T15:51:49.221Z,13.25
2022-11-19T15:54:15.580Z,12.40
2022-11-19T15:56:50.296Z,12.98
2022-11-19T15:59:19.933Z,15.07
2022-11-19T16:01:59.352Z,11.83
2022-11-19T16:04:31.742Z,15.95
2022-11-19T16:06:58.298Z,13.05
2022-11-19T16:09:25.476Z,11.40
2022-11-19T16:12:11.113Z,12.57
2022-11-19T16:14:55.883Z,13.23
2022-11-19T16:17:43.533Z,11.95
2022-11-19T16:20:10.619Z,11.48
2022-11-19T16:23:01.980Z,13.27
2022-11-19T16:25:47.733Z,11.77
2022-11-19T16:28:30.411Z,11.63
2022-11-19T16:31:01.863Z,12.43
2022-11-19T16:33:30.217Z,13.27
2022-11-19T16:36:14.925Z,13.20
2022-11-19T16:38:47.663Z,13.35
2022-11-19T16:41:35.214Z,12.83
2022-11-19T16:44:09.110Z,11.20
2022-11-19T16:46:35.609Z,13.02
2022-11-19T16:49:03.504Z,12.77
2022-11-19T16:51:33.714Z,14.55
2022-11-19T16:54:00.749Z,12.83
2022-11-19T16:56:37.309Z,13.07
2022-11-19T16:59:05.054Z,13.73
2022-11-19T17:01:32.267Z,12.27
2022-11-19T17:04:07.636Z,13.55
2022-11-19T17:06:37.175Z,11.67
2022-11-19T17:09:05.971Z,14.23
2022-11-19T17:12:09.214Z,14.75
2022-11-19T17:14:35.534Z,14.30
2022-11-19T17:17:02.899Z,15.10
2022-11-19T17:19:33.109Z,16.57
2022-11-19T17:22:06.392Z,18.70
2022-11-19T17:24:44.655Z,19.05
2022-11-19T17:27:37.963Z,18.40
2022-11-19T17:30:21.076Z,20.15
2022-11-19T17:32:51.771Z,21.97
2022-11-19T17:35:37.987Z,19.92
2022-11-19T17:38:19.574Z,17.98
2022-11-19T17:40:56.434Z,20.83
2022-11-19T17:43:44.681Z,15.98
2022-11-19T17:46:11.209Z,15.17
2022-11-19T17:48:40.392Z,16.40
2022-11-19T17:51:09.524Z,17.48
2022-11-19T17:53:35.879Z,17.38
2022-11-19T17:56:03.552Z,17.00
2022-11-19T17:58:29.946Z,20.20
2022-11-19T18:00:56.378Z,17.45
2022-11-19T18:03:22.728Z,18.08
2022-11-19T18:05:49.659Z,20.23
2022-11-19T18:08:16.794Z,17.48
2022-11-19T18:10:46.365Z,17.37
2022-11-19T18:13:16.698Z,18.33
2022-11-19T18:15:43.044Z,18.08
2022-11-19T18:18:09.453Z,18.67
2022-11-19T18:20:35.858Z,19.15
2022-11-19T18:23:02.289Z,17.40
2022-11-19T18:25:28.645Z,18.50
2022-11-19T18:27:55.058Z,19.60
2022-11-19T18:30:21.505Z,19.15
2022-11-19T18:32:47.875Z,19.05
2022-11-19T18:35:17.926Z,19.97
2022-11-19T18:37:45.053Z,20.88
2022-11-19T18:40:13.505Z,24.00
2022-11-19T18:42:59.964Z,22.38
2022-11-19T18:45:26.895Z,25.50
2022-11-19T18:47:53.271Z,25.27
2022-11-19T18:50:19.693Z,23.52
2022-11-19T18:52:46.524Z,23.50
2022-11-19T18:55:12.909Z,28.92
2022-11-19T18:57:40.309Z,24.13
2022-11-19T19:00:07.495Z,26.27
2022-11-19T19:02:35.891Z,25.95
2022-11-19T19:05:02.722Z,24.75
2022-11-19T19:07:29.184Z,24.67
2022-11-19T19:09:55.708Z,24.50
2022-11-19T19:12:22.258Z,25.67
2022-11-19T19:14:51.448Z,22.52
2022-11-19T19:17:18.990Z,24.33
2022-11-19T19:19:46.046Z,23.85
2022-11-19T19:22:12.494Z,24.65
2022-11-19T19:24:38.976Z,26.97
2022-11-19T19:27:05.475Z,23.58
2022-11-19T19:29:31.874Z,25.33
2022-11-19T19:31:58.536Z,24.98
2022-11-19T19:34:25.100Z,24.67
2022-11-19T19:36:53.393Z,24.43
2022-11-19T19:39:20.447Z,20.30
2022-11-19T19:41:46.980Z,18.55
2022-11-19T19:44:13.334Z,19.67
2022-11-19T19:46:39.695Z,19.83
2022-11-19T19:49:06.076Z,18.53
2022-11-19T19:51:32.829Z,19.30
2022-11-19T19:54:01.332Z,20.88
2022-11-19T19:56:30.338Z,20.95
2022-11-19T19:58:58.185Z,20.67
2022-11-19T20:01:30.200Z,21.77
2022-11-19T20:04:05.641Z,21.40
2022-11-19T20:06:35.299Z,21.13
2022-11-19T20:09:07.033Z,22.95
2022-11-19T20:11:34.896Z,25.90
2022-11-19T20:14:01.440Z,23.70
2022-11-19T20:16:30.358Z,26.20
2022-11-19T20:18:59.287Z,20.45
2022-11-19T20:21:28.277Z,20.70
2022-11-19T20:23:55.444Z,21.45
2022-11-19T20:26:23.958Z,20.70
2022-11-19T20:28:56.094Z,21.25
2022-11-19T20:31:22.825Z,23.17
2022-11-19T20:33:54.610Z,20.98
2022-11-19T20:36:23.211Z,22.73
2022-11-19T20:38:49.860Z,21.70
2022-11-19T20:41:36.631Z,21.85
2022-11-19T20:44:22.723Z,22.52
2022-11-19T20:46:54.803Z,23.15
2022-11-19T20:49:30.300Z,22.08
2022-11-19T20:51:57.102Z,20.93
2022-11-19T20:54:24.421Z,23.38
2022-11-19T20:56:52.016Z,23.35
2022-11-19T20:59:19.455Z,24.20
2022-11-19T21:01:48.324Z,26.95
2022-11-19T21:04:14.793Z,27.43
2022-11-19T21:06:41.239Z,27.42
2022-11-19T21:09:07.665Z,25.80
2022-11-19T21:11:34.247Z,23.58
2022-11-19T21:14:00.860Z,24.95
2022-11-19T21:16:28.835Z,24.50
2022-11-19T21:18:55.750Z,27.63
2022-11-19T21:21:26.351Z,25.90
2022-11-19T21:23:53.644Z,25.67
2022-11-19T21:26:26.207Z,24.85
2022-11-19T21:28:55.057Z,26.77
2022-11-19T21:31:39.752Z,27.83
2022-11-19T21:34:22.772Z,27.13
2022-11-19T21:36:50.022Z,26.50
2022-11-19T21:39:19.418Z,29.13
2022-11-19T21:41:46.093Z,24.90
2022-11-19T21:44:15.426Z,26.83
2022-11-19T21:46:44.598Z,26.60
2022-11-19T21:49:11.012Z,24.83
2022-11-19T21:51:37.401Z,25.88
2022-11-19T21:54:03.870Z,25.97
2022-11-19T21:56:35.295Z,25.65
2022-11-19T21:59:03.868Z,25.95
2022-11-19T22:01:30.198Z,24.92
2022-11-19T22:03:56.565Z,28.00
2022-11-19T22:06:23.102Z,25.37
2022-11-19T22:08:49.545Z,25.60
2022-11-19T22:11:31.200Z,26.13
2022-11-19T22:14:03.487Z,27.98
2022-11-19T22:16:32.410Z,26.35
2022-11-19T22:18:58.985Z,26.77
2022-11-19T22:21:26.592Z,30.45
2022-11-19T22:23:53.059Z,25.67
2022-11-19T22:26:19.404Z,27.88
2022-11-19T22:28:45.892Z,26.35
2022-11-19T22:31:13.417Z,29.03
2022-11-19T22:33:41.790Z,28.70
2022-11-19T22:36:10.653Z,27.23
2022-11-19T22:38:38.586Z,25.15
2022-11-19T22:41:11.060Z,30.38
2022-11-19T22:43:38.349Z,25.40
2022-11-19T22:46:05.441Z,26.65
2022-11-19T22:48:32.952Z,28.15
2022-11-19T22:51:04.412Z,28.20
2022-11-19T22:53:30.786Z,27.10
2022-11-19T22:56:01.474Z,27.60
2022-11-19T22:58:27.819Z,25.15
2022-11-19T23:00:54.248Z,28.63
2022-11-19T23:03:20.653Z,48.83
2022-11-19T23:05:50.984Z,82.03
2022-11-19T23:08:17.813Z,43.70
2022-11-19T23:10:44.724Z,31.42
2022-11-19T23:13:31.309Z,33.03
2022-11-19T23:16:06.785Z,30.52
2022-11-19T23:18:38.963Z,27.98
2022-11-19T23:21:09.098Z,29.27
2022-11-19T23:23:35.739Z,35.35
2022-11-19T23:26:03.773Z,34.70
2022-11-19T23:28:32.408Z,37.33
2022-11-19T23:31:07.125Z,34.70
2022-11-19T23:33:33.816Z,32.80
2022-11-19T23:36:10.928Z,35.35
2022-11-19T23:38:38.623Z,35.42
2022-11-19T23:41:07.053Z,34.30
2022-11-19T23:43:34.006Z,34.10
2022-11-19T23:46:31.172Z,35.60
2022-11-19T23:48:58.616Z,35.42
2022-11-19T23:51:27.665Z,34.50
2022-11-19T23:53:54.404Z,39.28
2022-11-19T23:56:22.417Z,34.15
2022-11-19T23:58:49.190Z,33.73
